Lady Eman — 5IM513 — position and weather

sailwx.info

Track history (hours):
 
Tides and Currents Weather Stations Pressure Air Temp Water Temp Dewpoint Dewpoint Depression Visibility Wind Speed Wind Dir Waves Ship Positions

Lady Eman

Last reported at 2014-Jun-14 10:33 UTC. Time now 2014-Aug-02 02:49 UTC.
Position N 35°41' E 015°25'.
Warning: this ship's position is 48 days out of date.

Length 92 m; draft 7.6 m.

Type: Cargo ship. MMSI: 677041300.

Date/timePositionNaut miles runAvg speedWind from/ knotsBaromVisibWave heightAir tempDewpointWater temp
2014-Jun-14 10:33N 35°41' E 015°25'1110.7
2014-Jun-14 09:33N 35°32' E 015°19'1010.6
2014-Jun-14 08:33N 35°23' E 015°12'1010.3
2014-Jun-14 07:33N 35°14' E 015°05'1010.3
2014-Jun-14 06:33N 35°06' E 014°58'1010.1
2014-Jun-14 05:33N 34°57' E 014°51'1110.5
2014-Jun-14 04:33N 34°49' E 014°44'1010.4
2014-Jun-14 03:33N 34°40' E 014°37'1510.9
2014-Jun-14 02:09N 34°27' E 014°26'811.2
2014-Jun-14 01:28N 34°21' E 014°22'1011.0
2014-Jun-14 00:33N 34°12' E 014°15'1110.8
2014-Jun-13 23:33N 34°03' E 014°09'1110.5
2014-Jun-13 22:33N 33°54' E 014°01'1010.2
2014-Jun-13 21:33N 33°46' E 013°54'1110.3
2014-Jun-13 20:27N 33°37' E 013°46'910.3
2014-Jun-13 19:33N 33°29' E 013°40'10 9.6
2014-Jun-13 18:33N 33°21' E 013°34'12 9.8
2014-Jun-13 17:18N 33°11' E 013°25'7 9.9
2014-Jun-13 16:33N 33°05' E 013°20'10 9.8
2014-Jun-13 15:33N 32°57' E 013°14'3 1.5
2014-Jun-13 13:28N 32°54' E 013°12'0 0.0
2014-Jun-13 11:28N 32°54' E 013°12'0 0.0
2014-Jun-12 13:26N 32°54' E 013°12'0 0.0
2014-Jun-12 12:26N 32°54' E 013°12'0 0.0
2014-Jun-12 11:32N 32°54' E 013°12'0 0.0
2014-Jun-12 09:17N 32°54' E 013°12'0 0.0
2014-Jun-12 08:32N 32°54' E 013°12'0 0.0
2014-Jun-12 07:31N 32°54' E 013°12'0 0.0
2014-Jun-11 11:10N 32°54' E 013°12'0 0.0
2014-Jun-11 10:31N 32°54' E 013°12'0 0.0
2014-Jun-11 09:31N 32°54' E 013°12'0 0.0
2014-Jun-11 08:28N 32°54' E 013°12'0 0.0
2014-Jun-11 07:28N 32°54' E 013°12'0 0.0
2014-Jun-09 04:32N 32°54' E 013°12'  
Track history (hours):
 
Tides and Currents Weather Stations Pressure Air Temp Water Temp Dewpoint Dewpoint Depression Visibility Wind Speed Wind Dir Waves Ship Positions

Lady Eman

Last reported at 2014-Jun-14 10:33 UTC. Time now 2014-Aug-02 02:49 UTC.
Position N 35°41' E 015°25'.
Warning: this ship's position is 48 days out of date.

Length 92 m; draft 7.6 m.

Type: Cargo ship. MMSI: 677041300.

Date/timePositionNaut miles runAvg speedWind from/ knotsBaromVisibWave heightAir tempDewpointWater temp
2014-Jun-14 10:33N 35°41' E 015°25'1110.7
2014-Jun-14 09:33N 35°32' E 015°19'1010.6
2014-Jun-14 08:33N 35°23' E 015°12'1010.3
2014-Jun-14 07:33N 35°14' E 015°05'1010.3
2014-Jun-14 06:33N 35°06' E 014°58'1010.1
2014-Jun-14 05:33N 34°57' E 014°51'1110.5
2014-Jun-14 04:33N 34°49' E 014°44'1010.4
2014-Jun-14 03:33N 34°40' E 014°37'1510.9
2014-Jun-14 02:09N 34°27' E 014°26'811.2
2014-Jun-14 01:28N 34°21' E 014°22'1011.0
2014-Jun-14 00:33N 34°12' E 014°15'1110.8
2014-Jun-13 23:33N 34°03' E 014°09'1110.5
2014-Jun-13 22:33N 33°54' E 014°01'1010.2
2014-Jun-13 21:33N 33°46' E 013°54'1110.3
2014-Jun-13 20:27N 33°37' E 013°46'910.3
2014-Jun-13 19:33N 33°29' E 013°40'10 9.6
2014-Jun-13 18:33N 33°21' E 013°34'12 9.8
2014-Jun-13 17:18N 33°11' E 013°25'7 9.9
2014-Jun-13 16:33N 33°05' E 013°20'10 9.8
2014-Jun-13 15:33N 32°57' E 013°14'3 1.5
2014-Jun-13 13:28N 32°54' E 013°12'0 0.0
2014-Jun-13 11:28N 32°54' E 013°12'0 0.0
2014-Jun-12 13:26N 32°54' E 013°12'0 0.0
2014-Jun-12 12:26N 32°54' E 013°12'0 0.0
2014-Jun-12 11:32N 32°54' E 013°12'0 0.0
2014-Jun-12 09:17N 32°54' E 013°12'0 0.0
2014-Jun-12 08:32N 32°54' E 013°12'0 0.0
2014-Jun-12 07:31N 32°54' E 013°12'0 0.0
2014-Jun-11 11:10N 32°54' E 013°12'0 0.0
2014-Jun-11 10:31N 32°54' E 013°12'0 0.0
2014-Jun-11 09:31N 32°54' E 013°12'0 0.0
2014-Jun-11 08:28N 32°54' E 013°12'0 0.0
2014-Jun-11 07:28N 32°54' E 013°12'0 0.0
2014-Jun-09 04:32N 32°54' E 013°12'  

Dump ship's entire track history